Time;durP1;ratioP1;P1;durP2;ratioP2;P2;SDS_P1;SDS_P2;PMS_P1;PMS_P2;Temp;Humidity;BMP_temperature;BMP_pressure;BME280_temperature;BME280_humidity;BME280_pressure;Samples;Min_cycle;Max_cycle;Signal;HPM_P1;HPM_P2
2020/12/04 00:01:15;;;;;;;8.45;6.68;;;6.40;99.90;;;;;;5047692;28;20223;-73
2020/12/04 00:03:42;;;;;;;8.10;6.20;;;6.40;99.90;;;;;;5047386;28;20195;-72
2020/12/04 00:06:08;;;;;;;10.23;7.32;;;6.40;99.90;;;;;;5054071;28;20207;-70
2020/12/04 00:08:34;;;;;;;9.35;6.60;;;6.40;99.90;;;;;;5047550;28;20203;-71
2020/12/04 00:11:01;;;;;;;8.55;6.30;;;6.40;99.90;;;;;;5047983;28;20207;-70
2020/12/04 00:13:30;;;;;;;9.13;6.78;;;6.40;99.90;;;;;;5048706;28;20203;-71
2020/12/04 00:15:57;;;;;;;9.65;6.40;;;6.40;99.90;;;;;;5047871;28;20234;-71
2020/12/04 00:18:24;;;;;;;8.68;6.68;;;6.40;99.90;;;;;;5047631;28;20207;-70
2020/12/04 00:20:50;;;;;;;7.18;5.63;;;6.40;99.90;;;;;;5047332;28;20281;-71
2020/12/04 00:23:16;;;;;;;7.22;6.10;;;6.40;99.90;;;;;;5048287;28;20203;-71
2020/12/04 00:25:43;;;;;;;7.15;5.47;;;6.50;99.90;;;;;;5045947;28;20231;-72
2020/12/04 00:28:09;;;;;;;7.95;6.03;;;6.40;99.90;;;;;;5047907;28;20203;-71
2020/12/04 00:30:36;;;;;;;7.78;6.40;;;6.50;99.90;;;;;;5047408;28;20241;-70
2020/12/04 00:33:03;;;;;;;7.75;6.40;;;6.50;99.90;;;;;;5046724;28;20264;-73
2020/12/04 00:35:29;;;;;;;8.73;6.85;;;6.40;99.90;;;;;;5046234;28;20284;-72
2020/12/04 00:37:56;;;;;;;7.35;6.38;;;6.40;99.90;;;;;;5044546;28;20204;-72
2020/12/04 00:40:22;;;;;;;7.97;6.80;;;6.40;99.90;;;;;;5046726;28;20313;-71
2020/12/04 00:42:48;;;;;;;9.40;6.13;;;6.40;99.90;;;;;;5046982;28;20660;-70
2020/12/04 00:45:15;;;;;;;7.85;6.60;;;6.50;99.90;;;;;;5047101;28;20745;-71
2020/12/04 00:47:42;;;;;;;9.02;6.53;;;6.40;99.90;;;;;;5046730;28;20207;-70
2020/12/04 00:50:09;;;;;;;7.03;5.80;;;6.40;99.90;;;;;;5061857;28;20199;-71
2020/12/04 00:52:36;;;;;;;8.18;6.25;;;6.40;99.90;;;;;;5045120;28;20248;-70
2020/12/04 00:55:02;;;;;;;8.50;6.70;;;6.40;99.90;;;;;;5062133;28;20203;-71
2020/12/04 00:57:28;;;;;;;8.00;5.60;;;6.40;99.90;;;;;;5044600;28;20215;-71
2020/12/04 00:59:55;;;;;;;8.30;6.40;;;6.40;99.90;;;;;;5062218;28;20230;-70
2020/12/04 01:02:21;;;;;;;8.40;6.72;;;6.40;99.90;;;;;;5046648;28;20246;-71
2020/12/04 01:04:48;;;;;;;7.75;6.07;;;6.40;99.90;;;;;;5047236;28;20265;-70
2020/12/04 01:07:14;;;;;;;8.43;6.70;;;6.40;99.90;;;;;;5045532;28;20606;-72
2020/12/04 01:09:41;;;;;;;7.50;6.28;;;6.40;99.90;;;;;;5047038;28;20207;-70
2020/12/04 01:12:07;;;;;;;8.93;6.85;;;6.40;99.90;;;;;;5060748;28;20258;-70
2020/12/04 01:14:33;;;;;;;8.77;6.70;;;6.30;99.90;;;;;;5046432;28;20257;-70
2020/12/04 01:17:00;;;;;;;9.05;6.90;;;6.30;99.90;;;;;;5063141;28;20801;-71
2020/12/04 01:19:26;;;;;;;7.75;6.55;;;6.30;99.90;;;;;;5050420;28;20222;-71
2020/12/04 01:21:53;;;;;;;10.32;6.78;;;6.30;99.90;;;;;;5045205;28;20705;-71
2020/12/04 01:24:20;;;;;;;8.48;7.03;;;6.30;99.90;;;;;;5046298;28;20664;-70
2020/12/04 01:26:46;;;;;;;10.20;7.10;;;6.40;99.90;;;;;;5045950;28;20203;-71
2020/12/04 01:29:12;;;;;;;10.68;7.30;;;6.30;99.90;;;;;;5042178;28;20207;-69
2020/12/04 01:31:39;;;;;;;9.05;7.18;;;6.30;99.90;;;;;;5049688;28;20191;-71
2020/12/04 01:34:09;;;;;;;9.57;7.55;;;6.30;99.90;;;;;;5047663;28;20199;-71
2020/12/04 01:36:35;;;;;;;9.05;7.22;;;6.30;99.90;;;;;;5046062;28;20207;-72
2020/12/04 01:39:03;;;;;;;10.43;7.93;;;6.30;99.90;;;;;;5046542;28;20712;-72
2020/12/04 01:41:33;;;;;;;11.80;8.18;;;6.20;99.90;;;;;;5043234;28;20252;-73
2020/12/04 01:43:59;;;;;;;13.20;8.73;;;6.30;99.90;;;;;;5046944;28;20653;-72
2020/12/04 01:46:25;;;;;;;10.75;8.15;;;6.20;99.90;;;;;;5044156;28;20215;-69
2020/12/04 01:48:52;;;;;;;12.88;8.50;;;6.30;99.90;;;;;;5046573;28;20203;-72
2020/12/04 01:51:18;;;;;;;11.55;8.77;;;6.30;99.90;;;;;;5046064;28;20519;-70
2020/12/04 01:53:45;;;;;;;13.48;8.45;;;6.30;99.90;;;;;;5046010;28;20203;-73
2020/12/04 01:56:12;;;;;;;11.68;7.97;;;6.30;99.90;;;;;;5049812;28;20203;-70
2020/12/04 01:58:38;;;;;;;11.05;8.63;;;6.30;99.90;;;;;;5045382;28;20676;-71
2020/12/04 02:01:06;;;;;;;12.35;8.60;;;6.30;99.90;;;;;;5046077;28;20207;-73
2020/12/04 02:03:34;;;;;;;14.77;8.57;;;6.30;99.90;;;;;;5060858;28;20218;-71
2020/12/04 02:06:05;;;;;;;11.65;8.27;;;6.30;99.90;;;;;;5045771;28;20207;-72
2020/12/04 02:08:39;;;;;;;12.00;8.35;;;6.20;99.90;;;;;;5045281;28;20210;-70
2020/12/04 02:11:15;;;;;;;15.45;8.43;;;6.20;99.90;;;;;;5043316;28;20332;-71
2020/12/04 02:13:45;;;;;;;11.93;8.18;;;6.20;99.90;;;;;;5045215;28;20210;-70
2020/12/04 02:16:13;;;;;;;13.68;9.43;;;6.20;99.90;;;;;;5043548;28;20285;-72
2020/12/04 02:18:40;;;;;;;12.63;8.27;;;6.20;99.90;;;;;;5045167;28;20211;-70
2020/12/04 02:21:07;;;;;;;14.57;9.25;;;6.20;99.90;;;;;;5043409;28;20230;-73
2020/12/04 02:23:34;;;;;;;11.27;8.35;;;6.20;99.90;;;;;;5046343;28;20203;-72
2020/12/04 02:26:01;;;;;;;13.25;8.63;;;6.20;99.90;;;;;;5044699;28;20223;-73
2020/12/04 02:28:32;;;;;;;13.20;8.00;;;6.20;99.90;;;;;;5045903;28;20605;-71
2020/12/04 02:30:59;;;;;;;13.02;8.18;;;6.10;99.90;;;;;;5043328;28;20614;-71
2020/12/04 02:33:25;;;;;;;10.95;7.78;;;6.10;99.90;;;;;;5046035;28;20202;-70
2020/12/04 02:35:51;;;;;;;11.75;8.40;;;6.00;99.90;;;;;;5043977;28;20203;-72
2020/12/04 02:38:19;;;;;;;13.80;7.97;;;6.10;99.90;;;;;;5045532;28;20738;-70
2020/12/04 02:40:45;;;;;;;11.88;8.10;;;6.10;99.90;;;;;;5067328;28;20235;-71
2020/12/04 02:43:12;;;;;;;11.40;7.90;;;6.00;99.90;;;;;;5045603;28;20234;-71
2020/12/04 02:45:38;;;;;;;12.38;8.38;;;6.00;99.90;;;;;;5044793;28;20203;-72
2020/12/04 02:48:04;;;;;;;11.55;7.72;;;6.10;99.90;;;;;;5044901;28;20967;-72
2020/12/04 02:50:31;;;;;;;11.07;7.80;;;6.10;99.90;;;;;;5043796;28;21323;-71
2020/12/04 02:52:57;;;;;;;13.10;7.82;;;6.10;99.90;;;;;;5042326;28;20731;-70
2020/12/04 02:55:24;;;;;;;11.35;7.95;;;6.00;99.90;;;;;;5048581;28;20203;-72
2020/12/04 02:57:50;;;;;;;11.70;8.07;;;6.00;99.90;;;;;;5045311;28;20265;-71
2020/12/04 03:00:17;;;;;;;11.48;7.80;;;6.00;99.90;;;;;;5045787;28;20227;-70
2020/12/04 03:02:43;;;;;;;11.68;7.80;;;6.00;99.90;;;;;;5046394;28;20333;-70
2020/12/04 03:05:09;;;;;;;11.93;8.13;;;6.00;99.90;;;;;;5046263;28;20669;-71
2020/12/04 03:07:36;;;;;;;11.70;7.10;;;6.00;99.90;;;;;;5059563;28;20222;-69
2020/12/04 03:10:04;;;;;;;12.77;8.00;;;6.00;99.90;;;;;;5049711;28;20274;-69
2020/12/04 03:12:32;;;;;;;11.00;7.60;;;6.00;99.90;;;;;;5043815;28;20217;-71
2020/12/04 03:15:00;;;;;;;10.95;7.82;;;6.00;99.90;;;;;;5049754;28;20191;-69
2020/12/04 03:17:27;;;;;;;12.35;7.72;;;6.00;99.90;;;;;;5044047;28;20278;-71
2020/12/04 03:19:54;;;;;;;11.93;7.55;;;6.10;99.90;;;;;;5044469;28;20213;-71
2020/12/04 03:22:20;;;;;;;11.30;7.50;;;6.10;99.90;;;;;;5043392;28;20950;-71
2020/12/04 03:24:46;;;;;;;10.43;7.45;;;6.10;99.90;;;;;;5045302;28;20227;-72
2020/12/04 03:27:13;;;;;;;11.85;7.40;;;6.10;99.90;;;;;;5042973;28;20207;-70
2020/12/04 03:29:40;;;;;;;9.95;7.50;;;6.10;99.90;;;;;;5043541;28;20257;-71
2020/12/04 03:32:06;;;;;;;12.35;6.93;;;6.10;99.90;;;;;;5044517;28;20203;-73
2020/12/04 03:34:33;;;;;;;12.57;7.68;;;6.10;99.90;;;;;;5043975;28;21083;-71
2020/12/04 03:36:59;;;;;;;11.40;7.55;;;6.10;99.90;;;;;;5046222;28;20199;-71
2020/12/04 03:39:27;;;;;;;11.68;7.15;;;6.10;99.90;;;;;;5045849;28;20235;-72
2020/12/04 03:41:53;;;;;;;9.55;6.60;;;6.10;99.90;;;;;;5050040;28;20202;-70
2020/12/04 03:44:20;;;;;;;9.95;6.60;;;6.10;99.90;;;;;;5051024;28;20207;-72
2020/12/04 03:46:48;;;;;;;14.60;7.60;;;6.10;99.90;;;;;;5048841;28;20203;-72
2020/12/04 03:49:15;;;;;;;10.80;7.22;;;6.10;99.90;;;;;;5048841;28;20676;-70
2020/12/04 03:51:42;;;;;;;10.45;6.93;;;6.20;99.90;;;;;;5046659;28;20207;-72
2020/12/04 03:54:08;;;;;;;11.07;7.05;;;6.20;99.90;;;;;;5047947;28;20281;-71
2020/12/04 03:56:35;;;;;;;9.65;6.32;;;6.20;99.90;;;;;;5047054;28;20706;-71
2020/12/04 03:59:01;;;;;;;9.48;6.75;;;6.20;99.90;;;;;;5048636;28;20211;-72
2020/12/04 04:01:27;;;;;;;8.55;5.50;;;6.20;99.90;;;;;;5047838;28;20211;-71
2020/12/04 04:03:54;;;;;;;7.88;5.82;;;6.20;99.90;;;;;;5049044;28;20194;-70
2020/12/04 04:06:20;;;;;;;7.50;5.43;;;6.20;99.90;;;;;;5048229;28;20207;-72
2020/12/04 04:08:47;;;;;;;6.97;5.20;;;6.20;99.90;;;;;;5046263;28;20908;-71
2020/12/04 04:11:13;;;;;;;8.25;5.63;;;6.20;99.90;;;;;;5047043;28;21468;-71
2020/12/04 04:13:39;;;;;;;7.63;5.07;;;6.30;99.90;;;;;;5047517;28;20664;-72
2020/12/04 04:16:06;;;;;;;8.18;5.47;;;6.30;99.90;;;;;;5046855;28;20207;-70
2020/12/04 04:18:32;;;;;;;6.55;4.68;;;6.30;99.90;;;;;;5048698;28;20326;-71
2020/12/04 04:20:59;;;;;;;8.20;5.40;;;6.30;99.90;;;;;;5050230;28;20696;-70
2020/12/04 04:23:26;;;;;;;7.45;5.22;;;6.30;99.90;;;;;;5051846;28;20210;-70
2020/12/04 04:25:52;;;;;;;7.70;5.00;;;6.30;99.90;;;;;;5047827;28;20207;-69
2020/12/04 04:28:18;;;;;;;7.28;5.15;;;6.30;99.90;;;;;;5048172;28;20256;-71
2020/12/04 04:30:45;;;;;;;7.63;5.43;;;6.30;99.90;;;;;;5045938;28;20200;-70
2020/12/04 04:33:11;;;;;;;6.75;4.82;;;6.30;99.90;;;;;;5047978;28;20203;-70
2020/12/04 04:35:38;;;;;;;7.32;4.50;;;6.30;99.90;;;;;;5047319;28;20761;-70
2020/12/04 04:38:05;;;;;;;6.47;4.95;;;6.30;99.90;;;;;;5045428;28;20759;-71
2020/12/04 04:40:31;;;;;;;6.78;4.63;;;6.30;99.90;;;;;;5047807;28;20277;-69
2020/12/04 04:43:11;;;;;;;7.38;4.88;;;6.30;99.90;;;;;;5045085;28;20211;-70
2020/12/04 04:45:39;;;;;;;5.93;4.47;;;6.40;99.90;;;;;;5046525;28;20198;-70
2020/12/04 04:48:11;;;;;;;6.22;4.30;;;6.40;99.90;;;;;;5045709;28;20204;-70
2020/12/04 04:50:38;;;;;;;6.28;3.78;;;6.40;99.90;;;;;;5047663;28;20234;-71
2020/12/04 04:53:05;;;;;;;5.50;4.03;;;6.40;99.90;;;;;;5046129;28;20668;-72
2020/12/04 04:55:32;;;;;;;5.50;3.95;;;6.40;99.90;;;;;;5044154;28;20296;-71
2020/12/04 04:57:59;;;;;;;4.68;3.75;;;6.50;99.90;;;;;;5060246;28;20217;-74
2020/12/04 05:00:26;;;;;;;5.97;4.13;;;6.40;99.90;;;;;;5047541;28;20222;-72
2020/12/04 05:02:52;;;;;;;4.97;3.45;;;6.50;99.90;;;;;;5052514;28;20199;-72
2020/12/04 05:05:19;;;;;;;4.88;3.30;;;6.50;99.90;;;;;;5051835;28;20671;-72
2020/12/04 05:07:45;;;;;;;3.97;3.17;;;6.60;99.90;;;;;;5044524;28;20264;-72
2020/12/04 05:10:14;;;;;;;3.85;3.20;;;6.60;99.90;;;;;;5046480;28;20195;-70
2020/12/04 05:12:43;;;;;;;4.88;3.35;;;6.60;99.90;;;;;;5050289;28;20597;-70
2020/12/04 05:15:20;;;;;;;4.40;2.92;;;6.60;99.90;;;;;;5044529;28;20270;-73
2020/12/04 05:18:05;;;;;;;3.47;2.95;;;6.60;99.90;;;;;;5046643;28;20681;-70
2020/12/04 05:20:32;;;;;;;3.55;2.70;;;6.60;99.90;;;;;;5050553;28;20215;-74
2020/12/04 05:22:59;;;;;;;4.05;2.78;;;6.60;99.90;;;;;;5046143;28;20203;-73
2020/12/04 05:25:33;;;;;;;4.40;2.70;;;6.60;99.90;;;;;;5045169;28;20203;-72
2020/12/04 05:28:07;;;;;;;3.53;2.83;;;6.60;99.90;;;;;;5046341;28;20199;-71
2020/12/04 05:30:34;;;;;;;3.75;2.65;;;6.60;99.90;;;;;;5045437;28;21166;-73
2020/12/04 05:33:01;;;;;;;3.78;2.70;;;6.60;99.90;;;;;;5046868;28;20257;-74
2020/12/04 05:35:28;;;;;;;5.90;2.80;;;6.60;99.90;;;;;;5044933;28;20942;-73
2020/12/04 05:38:08;;;;;;;6.68;2.97;;;6.60;99.90;;;;;;5061769;28;20215;-72
2020/12/04 05:40:36;;;;;;;3.03;2.65;;;6.60;99.90;;;;;;5049982;28;21518;-72
2020/12/04 05:43:03;;;;;;;3.13;2.65;;;6.60;99.90;;;;;;5046679;28;20215;-73
2020/12/04 05:45:31;;;;;;;3.10;2.60;;;6.60;99.90;;;;;;5045855;28;20270;-75
2020/12/04 05:47:57;;;;;;;3.53;2.83;;;6.60;99.90;;;;;;5054174;28;20265;-74
2020/12/04 05:50:24;;;;;;;3.03;2.03;;;6.60;99.90;;;;;;5045728;28;21369;-73
2020/12/04 05:52:50;;;;;;;2.83;2.20;;;6.60;99.90;;;;;;5046357;28;20211;-73
2020/12/04 05:55:17;;;;;;;3.00;2.22;;;6.60;99.90;;;;;;5046061;28;20686;-74
2020/12/04 05:57:47;;;;;;;4.25;2.30;;;6.60;99.90;;;;;;5044107;28;20811;-74
2020/12/04 06:00:15;;;;;;;4.15;2.30;;;6.60;99.90;;;;;;5051467;28;20281;-74
2020/12/04 06:02:42;;;;;;;3.65;2.35;;;6.60;99.90;;;;;;5044513;28;20210;-72
2020/12/04 06:05:10;;;;;;;2.35;1.98;;;6.70;99.90;;;;;;5046383;28;20210;-73
2020/12/04 06:07:38;;;;;;;4.47;2.25;;;6.70;99.90;;;;;;5045145;28;20264;-74
2020/12/04 06:10:05;;;;;;;2.40;2.00;;;6.70;99.90;;;;;;5045046;28;20286;-73
2020/12/04 06:12:33;;;;;;;4.18;1.95;;;6.70;99.90;;;;;;5045211;28;20199;-74
2020/12/04 06:15:26;;;;;;;2.60;2.00;;;6.70;99.90;;;;;;5045441;28;20211;-71
2020/12/04 06:18:02;;;;;;;3.30;1.90;;;6.80;99.90;;;;;;5045727;28;20243;-71
2020/12/04 06:20:28;;;;;;;2.65;1.70;;;6.80;99.90;;;;;;5044847;28;20272;-72
2020/12/04 06:23:06;;;;;;;2.28;1.75;;;6.80;99.90;;;;;;5045514;28;20229;-70
2020/12/04 06:25:55;;;;;;;2.47;2.00;;;6.80;99.90;;;;;;5044982;28;20207;-71
2020/12/04 06:28:23;;;;;;;2.50;1.88;;;6.80;99.90;;;;;;5049291;28;20195;-77
2020/12/04 06:31:03;;;;;;;2.40;1.83;;;6.80;99.90;;;;;;5044258;28;20656;-76
2020/12/04 06:33:34;;;;;;;2.28;1.98;;;6.90;99.90;;;;;;5045636;28;20207;-75
2020/12/04 06:36:01;;;;;;;1.88;1.45;;;6.90;99.90;;;;;;5044286;28;20683;-73
2020/12/04 06:38:44;;;;;;;3.65;1.95;;;6.90;99.90;;;;;;5044969;28;20263;-73
2020/12/04 06:41:31;;;;;;;2.28;1.73;;;7.00;99.90;;;;;;5044763;28;20545;-74
2020/12/04 06:43:59;;;;;;;2.55;1.77;;;7.00;99.90;;;;;;5043886;28;20241;-72
2020/12/04 06:46:41;;;;;;;2.08;1.65;;;7.00;99.90;;;;;;5044647;28;20214;-72
2020/12/04 06:49:37;;;;;;;2.45;1.70;;;7.10;99.90;;;;;;5044913;28;22777;-77
2020/12/04 06:52:13;;;;;;;3.83;1.80;;;7.10;99.90;;;;;;5043772;28;20213;-71
2020/12/04 06:54:41;;;;;;;1.83;1.50;;;7.20;99.90;;;;;;5064811;28;20205;-73
2020/12/04 06:57:08;;;;;;;2.80;1.77;;;7.20;99.90;;;;;;5048489;28;20207;-74
2020/12/04 06:59:37;;;;;;;6.47;1.70;;;7.20;99.90;;;;;;5054584;28;20248;-74
2020/12/04 07:02:10;;;;;;;2.15;1.83;;;7.20;99.90;;;;;;5043877;28;20300;-72
2020/12/04 07:04:39;;;;;;;5.65;1.60;;;7.30;99.90;;;;;;5046286;28;20203;-71
2020/12/04 07:07:11;;;;;;;2.58;1.75;;;7.30;99.90;;;;;;5043646;28;20215;-72
2020/12/04 07:09:39;;;;;;;2.90;1.70;;;7.40;99.90;;;;;;5045307;28;20664;-72
2020/12/04 07:12:05;;;;;;;2.75;1.40;;;7.40;99.90;;;;;;5046985;28;20218;-73
2020/12/04 07:14:32;;;;;;;3.67;1.83;;;7.50;99.90;;;;;;5049619;28;20671;-72
2020/12/04 07:16:59;;;;;;;2.05;1.50;;;7.50;99.90;;;;;;5050313;28;20207;-75
2020/12/04 07:19:27;;;;;;;2.58;1.58;;;7.50;99.90;;;;;;5063372;28;20307;-76
2020/12/04 07:21:54;;;;;;;2.88;1.60;;;7.50;99.90;;;;;;5053241;28;20206;-74
2020/12/04 07:24:20;;;;;;;2.13;1.30;;;7.50;99.90;;;;;;5047640;28;20218;-73
2020/12/04 07:26:52;;;;;;;1.77;1.42;;;7.60;99.90;;;;;;5049747;28;20635;-75
2020/12/04 07:29:18;;;;;;;2.78;1.70;;;7.60;99.90;;;;;;5049289;28;20610;-73
2020/12/04 07:31:46;;;;;;;2.08;1.30;;;7.70;99.90;;;;;;5048372;28;20702;-73
2020/12/04 07:34:13;;;;;;;3.22;1.50;;;7.70;99.90;;;;;;5047821;28;20202;-73
2020/12/04 07:36:53;;;;;;;2.35;1.00;;;7.70;99.90;;;;;;5050705;28;20670;-73
2020/12/04 07:39:31;;;;;;;3.17;1.20;;;7.70;99.90;;;;;;5047969;28;20203;-73
2020/12/04 07:42:00;;;;;;;3.00;1.30;;;7.80;99.90;;;;;;5048427;28;20203;-76
2020/12/04 07:44:28;;;;;;;1.65;1.10;;;7.80;99.90;;;;;;5056406;28;20214;-79
2020/12/04 07:47:06;;;;;;;2.08;1.40;;;7.90;99.90;;;;;;5062445;28;20205;-75
2020/12/04 07:49:33;;;;;;;1.88;1.30;;;7.90;99.90;;;;;;5051012;28;20256;-74
2020/12/04 07:52:15;;;;;;;2.78;1.30;;;7.90;99.90;;;;;;5054043;28;20668;-74
2020/12/04 07:54:42;;;;;;;2.67;1.20;;;7.90;99.90;;;;;;5047669;28;20203;-71
2020/12/04 07:57:09;;;;;;;1.33;1.13;;;7.90;99.90;;;;;;5048782;28;20212;-71
2020/12/04 07:59:36;;;;;;;2.05;1.02;;;7.90;99.90;;;;;;5047209;28;20202;-70
2020/12/04 08:02:05;;;;;;;2.33;1.17;;;7.90;99.90;;;;;;5055040;28;20203;-71
2020/12/04 08:04:33;;;;;;;2.50;1.20;;;8.00;99.90;;;;;;5048243;28;20229;-69
2020/12/04 08:07:11;;;;;;;1.58;1.13;;;8.00;99.90;;;;;;5048063;28;20265;-69
2020/12/04 08:09:39;;;;;;;1.55;0.98;;;8.00;99.90;;;;;;5050569;28;20229;-70
2020/12/04 08:12:10;;;;;;;1.92;1.25;;;8.00;99.90;;;;;;5048810;28;20204;-69
2020/12/04 08:14:39;;;;;;;1.38;0.90;;;8.00;99.90;;;;;;5047567;28;20203;-71
2020/12/04 08:17:06;;;;;;;2.40;1.10;;;8.00;99.90;;;;;;5049056;28;20211;-71
2020/12/04 08:19:34;;;;;;;1.65;1.00;;;8.00;99.90;;;;;;5045365;28;20215;-70
2020/12/04 08:22:06;;;;;;;1.98;0.80;;;8.10;99.90;;;;;;5047657;28;20282;-71
2020/12/04 08:24:36;;;;;;;6.93;1.05;;;8.10;99.90;;;;;;5048143;28;20199;-71
2020/12/04 08:27:13;;;;;;;1.60;0.98;;;8.20;99.90;;;;;;5045801;28;20199;-70
2020/12/04 08:29:42;;;;;;;1.20;0.90;;;8.20;99.90;;;;;;5051430;28;20252;-71
2020/12/04 08:32:14;;;;;;;2.13;0.90;;;8.20;99.90;;;;;;5045155;28;20297;-70
2020/12/04 08:34:42;;;;;;;1.77;0.95;;;8.20;99.90;;;;;;5047888;28;20208;-70
2020/12/04 08:37:11;;;;;;;3.60;1.00;;;8.20;99.90;;;;;;5047208;28;20204;-70
2020/12/04 08:39:44;;;;;;;1.13;0.90;;;8.20;99.90;;;;;;5048151;28;20227;-71
2020/12/04 08:42:12;;;;;;;4.40;1.02;;;8.20;99.90;;;;;;5048340;28;20268;-70
2020/12/04 08:44:39;;;;;;;1.33;1.15;;;8.30;99.90;;;;;;5047687;28;20257;-71
2020/12/04 08:47:05;;;;;;;1.02;0.80;;;8.30;99.90;;;;;;5046311;28;20665;-71
2020/12/04 08:49:32;;;;;;;1.05;0.82;;;8.30;99.90;;;;;;5046344;28;20231;-72
2020/12/04 08:51:59;;;;;;;2.22;0.88;;;8.30;99.60;;;;;;5047935;28;20211;-69
2020/12/04 08:54:27;;;;;;;1.20;1.10;;;8.30;99.30;;;;;;5047230;28;20645;-69
2020/12/04 08:56:55;;;;;;;0.90;0.90;;;8.30;98.80;;;;;;5050188;28;20268;-73
2020/12/04 08:59:23;;;;;;;0.90;0.90;;;8.30;98.30;;;;;;5046551;28;20294;-76
2020/12/04 09:01:50;;;;;;;1.17;1.00;;;8.30;98.20;;;;;;5053380;28;20616;-73
2020/12/04 09:04:17;;;;;;;1.00;0.90;;;8.30;98.00;;;;;;5046501;28;20206;-74
2020/12/04 09:06:43;;;;;;;1.10;0.80;;;8.30;97.90;;;;;;5048269;28;20210;-76
2020/12/04 09:09:09;;;;;;;1.15;0.80;;;8.30;97.70;;;;;;5047268;28;20664;-71
2020/12/04 09:11:36;;;;;;;1.00;0.90;;;8.30;97.60;;;;;;5049196;28;20599;-73
2020/12/04 09:14:03;;;;;;;1.33;0.90;;;8.30;97.40;;;;;;5045808;28;20225;-74
2020/12/04 09:16:29;;;;;;;0.95;0.73;;;8.30;97.60;;;;;;5046767;28;20207;-76
2020/12/04 09:18:55;;;;;;;0.85;0.80;;;8.30;97.30;;;;;;5046335;28;20203;-73
2020/12/04 09:21:22;;;;;;;1.90;0.90;;;8.30;97.30;;;;;;5049109;28;20595;-70
2020/12/04 09:23:48;;;;;;;1.73;1.20;;;8.30;97.20;;;;;;5046789;28;20621;-70
2020/12/04 09:26:14;;;;;;;1.52;1.15;;;8.30;97.10;;;;;;5045721;28;20525;-70
2020/12/04 09:28:41;;;;;;;1.48;1.20;;;8.30;96.90;;;;;;5046868;28;20253;-68
2020/12/04 09:31:08;;;;;;;1.30;1.20;;;8.30;96.80;;;;;;5046772;28;20210;-71
2020/12/04 09:33:34;;;;;;;1.35;1.25;;;8.30;96.80;;;;;;5045500;28;20215;-71
2020/12/04 09:36:00;;;;;;;1.35;1.25;;;8.30;96.80;;;;;;5047102;28;20211;-70
2020/12/04 09:38:27;;;;;;;1.08;0.98;;;8.30;96.80;;;;;;5050020;28;20207;-75
2020/12/04 09:40:53;;;;;;;2.03;1.30;;;8.40;96.80;;;;;;5047157;28;20234;-75
2020/12/04 09:43:19;;;;;;;1.38;1.27;;;8.40;96.80;;;;;;5045292;28;20199;-75
2020/12/04 09:45:45;;;;;;;2.25;1.30;;;8.40;96.70;;;;;;5047080;28;20742;-75
2020/12/04 09:48:12;;;;;;;1.90;1.15;;;8.40;96.50;;;;;;5053061;28;20194;-72
2020/12/04 09:50:39;;;;;;;1.52;1.20;;;8.50;96.40;;;;;;5043366;28;20207;-77
2020/12/04 09:53:05;;;;;;;2.92;1.20;;;8.50;96.30;;;;;;5046063;28;20265;-75
2020/12/04 09:55:32;;;;;;;1.73;1.42;;;8.50;96.30;;;;;;5051176;28;20227;-74
2020/12/04 09:57:58;;;;;;;3.20;1.10;;;8.50;96.20;;;;;;5046554;28;20203;-75
2020/12/04 10:00:24;;;;;;;1.48;1.33;;;8.50;96.40;;;;;;5044951;28;20219;-75
2020/12/04 10:02:51;;;;;;;3.15;1.42;;;8.50;96.10;;;;;;5046045;28;20211;-77
2020/12/04 10:05:18;;;;;;;1.83;1.40;;;8.50;96.20;;;;;;5045911;28;20211;-75
2020/12/04 10:07:44;;;;;;;2.65;2.17;;;8.50;96.10;;;;;;5051691;28;20270;-73
2020/12/04 10:10:11;;;;;;;1.55;1.40;;;8.60;96.00;;;;;;5050646;28;20199;-75
2020/12/04 10:12:37;;;;;;;1.90;1.20;;;8.60;96.00;;;;;;5052196;28;20600;-75
2020/12/04 10:15:04;;;;;;;2.00;1.25;;;8.60;95.90;;;;;;5045541;28;20302;-74
2020/12/04 10:17:30;;;;;;;2.75;1.50;;;8.60;95.60;;;;;;5050578;28;20203;-76
2020/12/04 10:19:57;;;;;;;1.77;1.33;;;8.60;95.50;;;;;;5044566;28;20276;-76
2020/12/04 10:22:24;;;;;;;2.17;1.17;;;8.60;95.50;;;;;;5045832;28;20242;-74
2020/12/04 10:24:50;;;;;;;2.35;1.25;;;8.60;95.30;;;;;;5059741;28;20264;-75
2020/12/04 10:27:16;;;;;;;3.95;1.27;;;8.60;95.30;;;;;;5045087;28;20673;-74
2020/12/04 10:29:42;;;;;;;1.75;1.40;;;8.60;95.20;;;;;;5044374;28;20617;-74
2020/12/04 10:32:09;;;;;;;1.63;1.27;;;8.60;95.10;;;;;;5045172;28;20211;-75
2020/12/04 10:34:35;;;;;;;2.42;1.30;;;8.50;94.90;;;;;;5049491;28;20648;-76
2020/12/04 10:37:02;;;;;;;3.45;1.55;;;8.60;95.00;;;;;;5042682;28;20262;-75
2020/12/04 10:39:29;;;;;;;2.35;1.42;;;8.60;94.90;;;;;;5045037;28;20235;-76
2020/12/04 10:41:55;;;;;;;2.30;1.30;;;8.60;94.70;;;;;;5045318;28;20211;-75
2020/12/04 10:44:22;;;;;;;1.85;1.30;;;8.60;94.60;;;;;;5044321;28;20203;-78
2020/12/04 10:46:48;;;;;;;2.20;1.20;;;8.50;94.50;;;;;;5044750;28;20954;-74
2020/12/04 10:49:14;;;;;;;2.75;1.42;;;8.50;94.40;;;;;;5042930;28;20203;-76
2020/12/04 10:51:43;;;;;;;3.97;1.50;;;8.50;94.50;;;;;;5044022;28;20203;-74
2020/12/04 10:54:09;;;;;;;3.30;1.40;;;8.50;94.30;;;;;;5045673;28;20214;-73
2020/12/04 10:56:36;;;;;;;1.80;1.30;;;8.50;94.30;;;;;;5045406;28;20278;-75
2020/12/04 10:59:03;;;;;;;2.33;1.35;;;8.60;94.30;;;;;;5044426;28;20821;-75
2020/12/04 11:01:34;;;;;;;3.42;1.25;;;8.60;94.70;;;;;;5060307;28;20314;-74
2020/12/04 11:06:45;;;;;;;1.35;1.25;;;8.60;94.20;;;;;;5048672;28;20203;-75
2020/12/04 11:09:11;;;;;;;1.73;1.30;;;8.60;94.20;;;;;;5045003;28;20664;-72
2020/12/04 11:11:38;;;;;;;3.38;1.30;;;8.60;94.10;;;;;;5048051;28;20214;-75
2020/12/04 11:14:05;;;;;;;2.38;1.50;;;8.60;94.10;;;;;;5045393;28;20199;-74
2020/12/04 11:16:31;;;;;;;3.05;1.50;;;8.60;94.00;;;;;;5045471;28;20652;-76
2020/12/04 11:18:57;;;;;;;3.33;1.40;;;8.60;94.00;;;;;;5044287;28;20668;-73
2020/12/04 11:21:28;;;;;;;2.90;1.50;;;8.60;94.00;;;;;;5047704;28;20246;-73
2020/12/04 11:23:54;;;;;;;2.05;1.63;;;8.60;93.90;;;;;;5061002;28;20206;-74
2020/12/04 11:26:21;;;;;;;2.90;1.40;;;8.60;93.80;;;;;;5046766;28;20229;-75
2020/12/04 11:28:48;;;;;;;3.08;1.33;;;8.60;93.80;;;;;;5049259;28;20210;-74
2020/12/04 11:31:14;;;;;;;1.95;1.33;;;8.60;93.70;;;;;;5044506;28;20199;-75
2020/12/04 11:33:40;;;;;;;2.08;1.40;;;8.60;93.70;;;;;;5047051;28;20699;-73
2020/12/04 11:36:07;;;;;;;1.55;1.10;;;8.60;93.60;;;;;;5045456;28;20264;-75
2020/12/04 11:38:33;;;;;;;1.23;1.13;;;8.70;93.60;;;;;;5047955;28;20703;-74
2020/12/04 11:41:00;;;;;;;2.15;1.20;;;8.70;93.50;;;;;;5027719;28;20230;-75
2020/12/04 11:43:26;;;;;;;3.75;1.17;;;8.80;93.70;;;;;;5043350;28;20207;-73
2020/12/04 11:45:53;;;;;;;1.50;1.33;;;9.10;93.70;;;;;;5044949;28;20257;-76
2020/12/04 11:48:20;;;;;;;1.50;1.40;;;9.20;93.20;;;;;;5044344;28;20215;-74
2020/12/04 11:50:47;;;;;;;3.35;1.20;;;9.20;92.90;;;;;;5046399;28;20207;-73
2020/12/04 11:53:14;;;;;;;3.63;1.30;;;9.20;92.70;;;;;;5043801;28;20307;-74
2020/12/04 11:55:40;;;;;;;3.63;1.60;;;9.20;92.50;;;;;;5047488;28;20202;-75
2020/12/04 11:58:07;;;;;;;2.55;1.90;;;9.10;92.40;;;;;;5046653;28;20219;-73
2020/12/04 12:00:33;;;;;;;2.45;1.45;;;9.10;92.50;;;;;;5046924;28;20723;-76
2020/12/04 12:03:00;;;;;;;2.50;1.20;;;9.10;92.50;;;;;;5048915;28;20203;-76
2020/12/04 12:05:26;;;;;;;3.35;0.95;;;9.00;92.40;;;;;;5048539;28;20289;-76
2020/12/04 12:07:53;;;;;;;2.78;1.27;;;8.90;92.30;;;;;;5052258;28;20620;-74
2020/12/04 12:10:19;;;;;;;3.20;1.27;;;8.90;92.20;;;;;;5047698;28;20225;-75
2020/12/04 12:12:45;;;;;;;1.20;1.10;;;8.80;92.20;;;;;;5047544;28;20604;-74
2020/12/04 12:15:12;;;;;;;1.25;0.90;;;8.80;92.20;;;;;;5047228;28;20888;-74
2020/12/04 12:17:38;;;;;;;1.17;1.00;;;8.80;92.30;;;;;;5048475;28;20215;-75
2020/12/04 12:20:05;;;;;;;1.60;1.00;;;8.70;92.20;;;;;;5045995;28;20214;-73
2020/12/04 12:22:31;;;;;;;1.30;0.88;;;8.70;92.20;;;;;;5047877;28;20610;-73
2020/12/04 12:24:58;;;;;;;1.05;1.00;;;8.70;92.10;;;;;;5049177;28;20222;-71
2020/12/04 12:27:24;;;;;;;1.58;0.77;;;8.70;92.10;;;;;;5054224;28;20203;-70
2020/12/04 12:29:50;;;;;;;2.00;0.80;;;8.70;91.90;;;;;;5045684;28;20226;-71
2020/12/04 12:32:17;;;;;;;3.45;1.00;;;8.70;91.80;;;;;;5047304;28;20751;-70
2020/12/04 12:35:02;;;;;;;0.88;0.63;;;8.70;91.60;;;;;;5052119;28;20253;-71
2020/12/04 12:37:31;;;;;;;1.48;0.88;;;8.60;91.50;;;;;;5053761;28;20199;-72
2020/12/04 12:39:58;;;;;;;1.58;1.00;;;8.60;91.40;;;;;;5046610;28;20712;-71
2020/12/04 12:42:24;;;;;;;0.80;0.80;;;8.60;91.40;;;;;;5047481;28;20230;-71
2020/12/04 12:44:51;;;;;;;2.15;0.82;;;8.60;91.40;;;;;;5047485;28;20203;-70
2020/12/04 12:47:17;;;;;;;1.00;0.88;;;8.60;91.60;;;;;;5052328;28;20208;-71
2020/12/04 12:49:44;;;;;;;1.35;1.00;;;8.60;91.60;;;;;;5045362;28;20206;-71
2020/12/04 12:52:11;;;;;;;2.15;1.02;;;8.60;91.50;;;;;;5046223;28;20199;-71
2020/12/04 12:54:39;;;;;;;1.73;1.40;;;8.60;91.60;;;;;;5050419;28;20623;-71
2020/12/04 12:57:05;;;;;;;1.95;1.40;;;8.70;91.70;;;;;;5049381;28;20722;-71
2020/12/04 12:59:32;;;;;;;3.58;1.27;;;8.70;91.80;;;;;;5049799;28;20548;-72
2020/12/04 13:01:59;;;;;;;1.35;1.10;;;8.80;91.90;;;;;;5047634;28;20226;-71